createdAt,value
2023-05-14T00:00:50.711Z,2.17
2023-05-14T00:03:18.107Z,2.50
2023-05-14T00:05:45.495Z,2.35
2023-05-14T00:08:12.797Z,2.08
2023-05-14T00:10:41.438Z,2.20
2023-05-14T00:13:08.750Z,2.70
2023-05-14T00:15:36.165Z,2.00
2023-05-14T00:18:03.606Z,2.30
2023-05-14T00:20:31.414Z,2.30
2023-05-14T00:22:58.723Z,2.13
2023-05-14T00:25:26.228Z,2.40
2023-05-14T00:27:53.704Z,2.35
2023-05-14T00:30:21.168Z,2.33
2023-05-14T00:32:48.634Z,2.40
2023-05-14T00:35:16.289Z,2.72
2023-05-14T00:37:43.607Z,2.55
2023-05-14T00:40:12.973Z,2.47
2023-05-14T00:42:41.495Z,2.33
2023-05-14T00:45:09.178Z,1.98
2023-05-14T00:47:37.295Z,2.10
2023-05-14T00:50:05.692Z,2.47
2023-05-14T00:52:33.312Z,2.13
2023-05-14T00:55:01.581Z,2.30
2023-05-14T00:57:29.094Z,2.08
2023-05-14T00:59:56.740Z,2.60
2023-05-14T01:02:24.313Z,2.45
2023-05-14T01:04:52.524Z,2.40
2023-05-14T01:07:23.078Z,1.95
2023-05-14T01:10:02.056Z,2.00
2023-05-14T01:12:29.498Z,1.80
2023-05-14T01:15:06.462Z,1.83
2023-05-14T01:17:34.368Z,2.00
2023-05-14T01:20:02.020Z,2.03
2023-05-14T01:22:29.567Z,2.05
2023-05-14T01:24:56.951Z,1.95
2023-05-14T01:27:40.842Z,1.65
2023-05-14T01:30:11.451Z,2.00
2023-05-14T01:32:40.099Z,2.00
2023-05-14T01:35:08.779Z,2.00
2023-05-14T01:37:37.179Z,2.13
2023-05-14T01:40:05.859Z,2.05
2023-05-14T01:42:34.227Z,2.13
2023-05-14T01:45:01.531Z,2.20
2023-05-14T01:47:28.990Z,2.10
2023-05-14T01:49:56.499Z,2.17
2023-05-14T01:52:23.984Z,2.20
2023-05-14T01:54:51.350Z,2.15
2023-05-14T01:57:18.717Z,2.40
2023-05-14T01:59:46.218Z,2.05
2023-05-14T02:02:13.921Z,2.58
2023-05-14T02:04:41.372Z,2.58
2023-05-14T02:07:08.880Z,2.28
2023-05-14T02:09:36.263Z,2.30
2023-05-14T02:12:03.634Z,2.13
2023-05-14T02:14:31.050Z,2.72
2023-05-14T02:16:58.542Z,2.00
2023-05-14T02:19:25.975Z,2.33
2023-05-14T02:21:53.448Z,2.17
2023-05-14T02:24:20.841Z,2.35
2023-05-14T02:26:48.714Z,2.40
2023-05-14T02:29:16.068Z,2.30
2023-05-14T02:31:43.621Z,2.20
2023-05-14T02:34:11.119Z,2.10
2023-05-14T02:36:38.525Z,1.95
2023-05-14T02:39:05.923Z,2.10
2023-05-14T02:41:33.335Z,2.42
2023-05-14T02:44:00.614Z,2.25
2023-05-14T02:46:28.027Z,2.20
2023-05-14T02:48:55.872Z,2.40
2023-05-14T02:51:23.418Z,2.40
2023-05-14T02:53:50.928Z,2.60
2023-05-14T02:56:18.284Z,2.10
2023-05-14T02:58:45.593Z,2.50
2023-05-14T03:01:13.185Z,1.98
2023-05-14T03:03:41.102Z,2.20
2023-05-14T03:06:09.031Z,1.88
2023-05-14T03:08:36.487Z,2.10
2023-05-14T03:11:04.208Z,2.08
2023-05-14T03:13:31.540Z,2.80
2023-05-14T03:15:59.370Z,2.40
2023-05-14T03:18:28.438Z,2.10
2023-05-14T03:20:55.844Z,2.08
2023-05-14T03:23:23.316Z,2.22
2023-05-14T03:25:52.717Z,2.40
2023-05-14T03:28:20.045Z,2.30
2023-05-14T03:30:47.485Z,2.60
2023-05-14T03:33:15.727Z,2.55
2023-05-14T03:35:43.122Z,2.20
2023-05-14T03:38:10.410Z,2.40
2023-05-14T03:40:37.997Z,2.30
2023-05-14T03:43:05.528Z,2.10
2023-05-14T03:45:32.977Z,2.17
2023-05-14T03:48:00.781Z,2.20
2023-05-14T03:50:28.194Z,2.33
2023-05-14T03:52:56.265Z,1.80
2023-05-14T03:55:23.756Z,1.88
2023-05-14T03:57:51.116Z,1.95
2023-05-14T04:00:18.658Z,2.05
2023-05-14T04:02:46.033Z,1.65
2023-05-14T04:05:13.413Z,1.80
2023-05-14T04:07:40.888Z,1.83
2023-05-14T04:10:08.492Z,1.98
2023-05-14T04:12:36.733Z,1.95
2023-05-14T04:15:04.553Z,1.77
2023-05-14T04:17:33.929Z,1.77
2023-05-14T04:20:02.560Z,2.08
2023-05-14T04:22:29.856Z,2.00
2023-05-14T04:24:57.172Z,1.77
2023-05-14T04:27:24.754Z,1.83
2023-05-14T04:29:52.473Z,1.98
2023-05-14T04:32:20.469Z,2.05
2023-05-14T04:34:47.959Z,2.45
2023-05-14T04:37:15.814Z,2.20
2023-05-14T04:39:43.597Z,2.20
2023-05-14T04:42:10.971Z,2.42
2023-05-14T04:44:38.418Z,2.60
2023-05-14T04:47:06.898Z,2.45
2023-05-14T04:49:34.260Z,2.45
2023-05-14T04:52:02.561Z,2.15
2023-05-14T04:54:30.384Z,2.50
2023-05-14T04:56:57.712Z,2.70
2023-05-14T04:59:25.021Z,2.70
2023-05-14T05:01:52.341Z,3.13
2023-05-14T05:04:19.835Z,2.42
2023-05-14T05:06:47.198Z,2.67
2023-05-14T05:09:14.898Z,2.47
2023-05-14T05:11:42.237Z,2.55
2023-05-14T05:14:09.623Z,2.47
2023-05-14T05:16:37.148Z,2.00
2023-05-14T05:19:04.657Z,2.30
2023-05-14T05:21:32.090Z,1.65
2023-05-14T05:23:59.443Z,2.30
2023-05-14T05:26:27.997Z,2.17
2023-05-14T05:28:55.338Z,2.20
2023-05-14T05:31:22.785Z,2.67
2023-05-14T05:33:50.218Z,2.28
2023-05-14T05:36:17.636Z,2.13
2023-05-14T05:38:45.461Z,1.98
2023-05-14T05:41:12.865Z,2.70
2023-05-14T05:43:40.323Z,2.63
2023-05-14T05:46:08.347Z,2.50
2023-05-14T05:48:35.848Z,2.70
2023-05-14T05:51:03.177Z,2.85
2023-05-14T05:53:30.544Z,2.38
2023-05-14T05:55:57.937Z,2.60
2023-05-14T05:58:25.265Z,2.50
2023-05-14T06:00:53.375Z,3.20
2023-05-14T06:03:22.119Z,2.22
2023-05-14T06:05:49.652Z,2.70
2023-05-14T06:08:17.469Z,2.28
2023-05-14T06:10:46.860Z,2.25
2023-05-14T06:13:14.879Z,2.13
2023-05-14T06:15:42.240Z,2.40
2023-05-14T06:18:10.257Z,2.10
2023-05-14T06:20:37.632Z,2.40
2023-05-14T06:23:04.966Z,2.28
2023-05-14T06:25:32.224Z,1.98
2023-05-14T06:27:59.919Z,2.20
2023-05-14T06:30:27.230Z,1.88
2023-05-14T06:32:54.661Z,2.20
2023-05-14T06:35:22.301Z,2.10
2023-05-14T06:37:49.633Z,2.67
2023-05-14T06:40:17.037Z,2.60
2023-05-14T06:42:44.336Z,1.90
2023-05-14T06:45:11.926Z,2.10
2023-05-14T06:47:39.212Z,2.70
2023-05-14T06:50:07.567Z,2.47
2023-05-14T06:52:36.202Z,2.47
2023-05-14T06:55:03.481Z,2.33
2023-05-14T06:57:31.463Z,2.50
2023-05-14T06:59:58.977Z,2.35
2023-05-14T07:02:26.366Z,2.42
2023-05-14T07:04:53.689Z,2.28
2023-05-14T07:07:21.233Z,1.90
2023-05-14T07:09:48.795Z,2.42
2023-05-14T07:12:16.134Z,1.80
2023-05-14T07:14:43.485Z,1.90
2023-05-14T07:17:11.251Z,2.10
2023-05-14T07:19:38.933Z,2.38
2023-05-14T07:22:06.559Z,1.90
2023-05-14T07:24:33.910Z,2.10
2023-05-14T07:27:01.906Z,2.08
2023-05-14T07:29:30.439Z,1.80
2023-05-14T07:31:57.921Z,1.75
2023-05-14T07:34:25.217Z,1.80
2023-05-14T07:36:57.403Z,1.90
2023-05-14T07:39:26.151Z,1.70
2023-05-14T07:41:54.996Z,1.77
2023-05-14T07:44:24.375Z,1.50
2023-05-14T07:46:51.740Z,1.60
2023-05-14T07:49:19.481Z,1.80
2023-05-14T07:51:47.482Z,1.60
2023-05-14T07:54:15.179Z,1.42
2023-05-14T07:56:42.554Z,1.75
2023-05-14T07:59:09.996Z,1.70
2023-05-14T08:01:39.287Z,2.00
2023-05-14T08:04:08.055Z,1.70
2023-05-14T08:06:35.680Z,1.75
2023-05-14T08:09:08.682Z,1.80
2023-05-14T08:11:36.053Z,1.50
2023-05-14T08:14:03.407Z,1.50
2023-05-14T08:16:30.825Z,1.75
2023-05-14T08:18:58.196Z,1.85
2023-05-14T08:21:25.589Z,1.67
2023-05-14T08:23:53.095Z,2.00
2023-05-14T08:26:21.645Z,1.70
2023-05-14T08:28:48.962Z,1.83
2023-05-14T08:31:16.404Z,1.35
2023-05-14T08:33:43.726Z,1.50
2023-05-14T08:36:11.063Z,1.50
2023-05-14T08:38:38.395Z,1.60
2023-05-14T08:41:06.713Z,1.70
2023-05-14T08:43:42.797Z,1.60
2023-05-14T08:46:11.246Z,1.60
2023-05-14T08:48:41.281Z,1.60
2023-05-14T08:51:08.892Z,1.70
2023-05-14T08:53:38.344Z,1.45
2023-05-14T08:56:05.911Z,1.40
2023-05-14T08:58:33.316Z,1.58
2023-05-14T09:01:00.882Z,1.70
2023-05-14T09:03:28.444Z,1.50
2023-05-14T09:05:57.993Z,1.45
2023-05-14T09:08:27.489Z,1.45
2023-05-14T09:10:54.965Z,1.50
2023-05-14T09:13:22.293Z,1.40
2023-05-14T09:15:51.200Z,1.70
2023-05-14T09:18:18.721Z,1.35
2023-05-14T09:20:47.622Z,1.45
2023-05-14T09:23:14.984Z,1.45
2023-05-14T09:25:43.152Z,1.40
2023-05-14T09:28:10.564Z,1.55
2023-05-14T09:30:38.446Z,1.80
2023-05-14T09:33:08.734Z,1.30
2023-05-14T09:35:37.976Z,1.55
2023-05-14T09:38:05.519Z,1.63
2023-05-14T09:40:33.820Z,1.33
2023-05-14T09:43:01.923Z,1.67
2023-05-14T09:45:30.062Z,1.60
2023-05-14T09:48:00.325Z,1.30
2023-05-14T09:50:27.766Z,1.23
2023-05-14T09:52:56.147Z,2.00
2023-05-14T09:55:23.814Z,1.42
2023-05-14T09:57:51.091Z,1.30
2023-05-14T10:00:18.708Z,1.30
2023-05-14T10:02:46.570Z,1.40
2023-05-14T10:05:15.878Z,1.42
2023-05-14T10:07:48.330Z,1.50
2023-05-14T10:10:22.518Z,1.10
2023-05-14T10:12:52.585Z,1.70
2023-05-14T10:15:34.730Z,1.55
2023-05-14T10:18:05.028Z,1.48
2023-05-14T10:20:32.686Z,1.60
2023-05-14T10:23:00.216Z,1.48
2023-05-14T10:25:28.036Z,1.27
2023-05-14T10:27:55.924Z,1.50
2023-05-14T10:30:23.926Z,1.20
2023-05-14T10:33:06.379Z,1.40
2023-05-14T10:35:51.328Z,1.80
2023-05-14T10:38:18.677Z,1.65
2023-05-14T10:40:48.443Z,1.48
2023-05-14T10:43:16.897Z,1.23
2023-05-14T10:45:44.620Z,1.35
2023-05-14T10:48:12.038Z,1.33
2023-05-14T10:50:39.365Z,1.20
2023-05-14T10:53:11.360Z,1.52
2023-05-14T10:55:39.484Z,1.58
2023-05-14T10:58:07.619Z,1.80
2023-05-14T11:00:36.258Z,2.28
2023-05-14T11:03:05.326Z,2.33
2023-05-14T11:05:33.637Z,1.60
2023-05-14T11:08:03.448Z,1.90
2023-05-14T11:10:31.632Z,2.45
2023-05-14T11:13:01.139Z,2.10
2023-05-14T11:15:29.682Z,2.10
2023-05-14T11:18:00.510Z,1.80
2023-05-14T11:20:27.896Z,3.10
2023-05-14T11:22:55.355Z,2.20
2023-05-14T11:25:26.036Z,1.90
2023-05-14T11:27:58.206Z,1.60
2023-05-14T11:30:25.851Z,1.30
2023-05-14T11:32:56.163Z,1.40
2023-05-14T11:35:25.173Z,1.27
2023-05-14T11:37:53.475Z,1.30
2023-05-14T11:40:21.135Z,1.30
2023-05-14T11:42:51.553Z,1.30
2023-05-14T11:45:33.245Z,1.33
2023-05-14T11:48:01.125Z,1.50
2023-05-14T11:50:28.570Z,1.60
2023-05-14T11:52:58.837Z,1.73
2023-05-14T11:55:26.228Z,1.80
2023-05-14T11:57:53.639Z,1.95
2023-05-14T12:00:23.064Z,1.63
2023-05-14T12:02:50.765Z,1.70
2023-05-14T12:05:18.713Z,2.00
2023-05-14T12:07:46.354Z,1.83
2023-05-14T12:10:14.121Z,1.65
2023-05-14T12:12:41.583Z,1.55
2023-05-14T12:15:13.338Z,1.70
2023-05-14T12:17:40.803Z,1.50
2023-05-14T12:20:12.421Z,1.70
2023-05-14T12:25:12.419Z,1.83
2023-05-14T12:27:39.945Z,2.00
2023-05-14T12:32:40.886Z,1.80
2023-05-14T12:35:08.678Z,1.90
2023-05-14T12:37:37.325Z,1.60
2023-05-14T12:40:21.674Z,1.20
2023-05-14T12:42:49.203Z,1.40
2023-05-14T12:45:16.625Z,1.48
2023-05-14T12:47:43.990Z,1.50
2023-05-14T12:50:11.507Z,1.63
2023-05-14T12:52:39.966Z,1.60
2023-05-14T12:55:11.064Z,1.60
2023-05-14T12:57:39.466Z,1.80
2023-05-14T13:00:08.256Z,1.48
2023-05-14T13:02:42.696Z,1.50
2023-05-14T13:05:11.777Z,1.20
2023-05-14T13:07:39.521Z,1.10
2023-05-14T13:10:07.195Z,1.30
2023-05-14T13:12:35.040Z,1.10
2023-05-14T13:15:02.498Z,1.20
2023-05-14T13:17:32.214Z,0.88
2023-05-14T13:19:59.563Z,0.90
2023-05-14T13:22:26.850Z,0.80
2023-05-14T13:24:54.226Z,0.80
2023-05-14T13:27:21.535Z,0.70
2023-05-14T13:29:48.901Z,0.70
2023-05-14T13:32:16.278Z,0.75
2023-05-14T13:34:44.064Z,1.00
2023-05-14T13:37:11.530Z,0.70
2023-05-14T13:39:41.262Z,0.60
2023-05-14T13:42:12.958Z,0.85
2023-05-14T13:44:40.952Z,0.60
2023-05-14T13:47:08.544Z,0.80
2023-05-14T13:49:36.038Z,0.70
2023-05-14T13:52:03.515Z,0.70
2023-05-14T13:54:30.834Z,0.63
2023-05-14T13:56:58.475Z,0.70
2023-05-14T13:59:26.021Z,0.57
2023-05-14T14:01:53.450Z,0.50
2023-05-14T14:04:20.960Z,0.57
2023-05-14T14:06:48.289Z,0.57
2023-05-14T14:09:15.786Z,0.50
2023-05-14T14:11:43.442Z,0.57
2023-05-14T14:14:11.254Z,0.50
2023-05-14T14:16:41.587Z,0.68
2023-05-14T14:19:09.928Z,0.50
2023-05-14T14:24:19.361Z,0.30
2023-05-14T14:26:46.685Z,0.50
2023-05-14T14:29:16.274Z,0.40
2023-05-14T14:31:47.964Z,0.40
2023-05-14T14:34:35.838Z,0.30
2023-05-14T14:37:23.157Z,0.30
2023-05-14T14:39:51.422Z,0.30
2023-05-14T14:42:19.661Z,0.40
2023-05-14T14:44:47.096Z,0.40
2023-05-14T14:47:14.404Z,0.40
2023-05-14T14:49:41.874Z,0.30
2023-05-14T14:52:09.422Z,0.38
2023-05-14T14:54:36.826Z,0.40
2023-05-14T14:57:04.273Z,0.40
2023-05-14T14:59:31.567Z,0.40
2023-05-14T15:01:59.246Z,0.30
2023-05-14T15:04:26.666Z,0.40
2023-05-14T15:06:54.218Z,0.47
2023-05-14T15:09:24.409Z,0.40
2023-05-14T15:11:53.049Z,0.30
2023-05-14T15:14:20.443Z,0.40
2023-05-14T15:16:50.945Z,0.40
2023-05-14T15:19:18.608Z,0.40
2023-05-14T15:21:46.542Z,0.40
2023-05-14T15:24:14.008Z,0.40
2023-05-14T15:26:41.525Z,0.57
2023-05-14T15:29:09.261Z,0.40
2023-05-14T15:31:36.637Z,0.30
2023-05-14T15:34:04.068Z,0.50
2023-05-14T15:36:32.232Z,0.40
2023-05-14T15:39:00.360Z,0.50
2023-05-14T15:41:28.771Z,0.63
2023-05-14T15:43:57.394Z,0.50
2023-05-14T15:46:25.612Z,0.60
2023-05-14T15:48:53.092Z,0.50
2023-05-14T15:51:20.570Z,0.50
2023-05-14T15:53:50.543Z,0.40
2023-05-14T15:56:17.968Z,0.60
2023-05-14T15:58:45.260Z,0.45
2023-05-14T16:01:12.600Z,0.47
2023-05-14T16:03:40.025Z,0.60
2023-05-14T16:06:07.537Z,0.50
2023-05-14T16:08:34.906Z,0.70
2023-05-14T16:11:02.540Z,0.60
2023-05-14T16:13:29.844Z,0.47
2023-05-14T16:15:57.338Z,0.60
2023-05-14T16:18:25.183Z,0.50
2023-05-14T16:20:53.406Z,0.40
2023-05-14T16:23:21.030Z,0.50
2023-05-14T16:25:48.770Z,0.50
2023-05-14T16:28:16.179Z,0.40
2023-05-14T16:30:44.577Z,0.60
2023-05-14T16:33:12.506Z,0.50
2023-05-14T16:35:40.891Z,0.47
2023-05-14T16:38:10.670Z,0.40
2023-05-14T16:40:38.428Z,0.70
2023-05-14T16:43:08.400Z,0.70
2023-05-14T16:45:37.851Z,0.50
2023-05-14T16:48:06.096Z,0.60
2023-05-14T16:50:33.758Z,0.60
2023-05-14T16:53:01.232Z,0.80
2023-05-14T16:55:28.576Z,0.80
2023-05-14T16:57:55.912Z,2.70
2023-05-14T17:00:23.810Z,1.80
2023-05-14T17:02:54.023Z,1.30
2023-05-14T17:05:21.743Z,1.10
2023-05-14T17:07:49.229Z,1.00
2023-05-14T17:10:16.857Z,0.88
2023-05-14T17:12:44.294Z,0.80
2023-05-14T17:15:11.917Z,0.80
2023-05-14T17:17:39.409Z,0.70
2023-05-14T17:20:06.911Z,0.90
2023-05-14T17:22:34.314Z,0.70
2023-05-14T17:25:01.676Z,0.70
2023-05-14T17:27:29.238Z,0.80
2023-05-14T17:29:56.624Z,0.73
2023-05-14T17:32:23.989Z,0.70
2023-05-14T17:34:51.546Z,0.90
2023-05-14T17:37:18.883Z,0.73
2023-05-14T17:39:46.504Z,0.80
2023-05-14T17:42:13.887Z,3.10
2023-05-14T17:44:41.332Z,3.40
2023-05-14T17:47:09.099Z,4.03
2023-05-14T17:49:37.098Z,3.15
2023-05-14T17:52:04.547Z,1.65
2023-05-14T17:54:31.952Z,1.30
2023-05-14T17:56:59.242Z,1.00
2023-05-14T17:59:26.590Z,1.08
2023-05-14T18:01:53.884Z,1.40
2023-05-14T18:04:21.564Z,1.83
2023-05-14T18:06:48.944Z,1.77
2023-05-14T18:09:16.341Z,1.60
2023-05-14T18:11:44.170Z,1.42
2023-05-14T18:14:11.748Z,1.52
2023-05-14T18:16:39.263Z,2.00
2023-05-14T18:19:06.822Z,1.80
2023-05-14T18:21:34.198Z,1.90
2023-05-14T18:24:01.492Z,2.00
2023-05-14T18:26:29.218Z,1.67
2023-05-14T18:28:58.054Z,1.90
2023-05-14T18:31:27.710Z,2.00
2023-05-14T18:33:55.279Z,2.20
2023-05-14T18:36:22.778Z,1.38
2023-05-14T18:38:50.053Z,1.30
2023-05-14T18:41:17.365Z,1.45
2023-05-14T18:43:44.810Z,0.70
2023-05-14T18:46:12.849Z,0.90
2023-05-14T18:48:40.316Z,1.25
2023-05-14T18:51:07.743Z,1.40
2023-05-14T18:53:35.115Z,2.53
2023-05-14T18:56:02.421Z,3.10
2023-05-14T18:58:30.609Z,2.50
2023-05-14T19:00:59.547Z,2.03
2023-05-14T19:03:27.057Z,2.40
2023-05-14T19:05:54.649Z,2.83
2023-05-14T19:08:23.129Z,2.88
2023-05-14T19:10:50.962Z,3.00
2023-05-14T19:13:18.445Z,2.15
2023-05-14T19:15:45.944Z,2.30
2023-05-14T19:18:13.841Z,2.20
2023-05-14T19:20:42.260Z,1.90
2023-05-14T19:23:09.615Z,1.80
2023-05-14T19:25:37.094Z,1.38
2023-05-14T19:28:05.129Z,1.40
2023-05-14T19:30:32.506Z,1.00
2023-05-14T19:33:00.747Z,0.90
2023-05-14T19:35:28.264Z,1.00
2023-05-14T19:37:56.366Z,1.00
2023-05-14T19:40:24.788Z,0.90
2023-05-14T19:42:54.969Z,1.13
2023-05-14T19:45:24.279Z,1.20
2023-05-14T19:47:56.562Z,1.15
2023-05-14T19:50:25.734Z,1.27
2023-05-14T19:52:54.364Z,1.17
2023-05-14T19:55:23.249Z,0.90
2023-05-14T19:57:51.955Z,0.90
2023-05-14T20:00:20.676Z,0.90
2023-05-14T20:02:50.397Z,0.90
2023-05-14T20:05:19.236Z,1.00
2023-05-14T20:07:49.393Z,1.23
2023-05-14T20:10:18.013Z,1.38
2023-05-14T20:12:47.559Z,1.67
2023-05-14T20:15:16.680Z,1.70
2023-05-14T20:17:45.434Z,1.90
2023-05-14T20:20:19.344Z,1.80
2023-05-14T20:22:49.420Z,1.60
2023-05-14T20:25:18.008Z,1.55
2023-05-14T20:27:45.659Z,2.10
2023-05-14T20:30:13.112Z,1.85
2023-05-14T20:32:40.705Z,1.60
2023-05-14T20:35:11.101Z,1.70
2023-05-14T20:37:43.797Z,1.77
2023-05-14T20:40:15.010Z,1.60
2023-05-14T20:42:42.450Z,1.48
2023-05-14T20:45:10.102Z,1.40
2023-05-14T20:47:37.852Z,1.50
2023-05-14T20:50:05.706Z,1.25
2023-05-14T20:52:33.010Z,1.40
2023-05-14T20:55:02.402Z,1.40
2023-05-14T20:57:30.262Z,1.30
2023-05-14T20:59:57.717Z,1.00
2023-05-14T21:02:25.707Z,1.10
2023-05-14T21:04:53.329Z,1.33
2023-05-14T21:07:20.930Z,1.70
2023-05-14T21:09:53.154Z,1.50
2023-05-14T21:12:22.096Z,1.38
2023-05-14T21:14:49.413Z,1.10
2023-05-14T21:17:16.730Z,1.00
2023-05-14T21:19:44.239Z,1.52
2023-05-14T21:22:11.603Z,1.50
2023-05-14T21:24:39.156Z,1.30
2023-05-14T21:27:06.630Z,1.20
2023-05-14T21:29:34.357Z,1.20
2023-05-14T21:32:01.888Z,1.40
2023-05-14T21:34:31.724Z,1.30
2023-05-14T21:37:02.374Z,1.20
2023-05-14T21:39:36.983Z,1.10
2023-05-14T21:42:09.714Z,1.13
2023-05-14T21:44:41.848Z,1.13
2023-05-14T21:47:15.986Z,1.13
2023-05-14T21:49:49.676Z,0.88
2023-05-14T21:52:23.547Z,1.05
2023-05-14T21:54:55.354Z,1.50
2023-05-14T21:57:30.704Z,1.60
2023-05-14T22:00:07.785Z,1.60
2023-05-14T22:02:35.319Z,2.38
2023-05-14T22:05:02.767Z,1.50
2023-05-14T22:07:30.112Z,1.58
2023-05-14T22:09:57.711Z,1.92
2023-05-14T22:12:26.103Z,2.10
2023-05-14T22:14:53.508Z,2.20
2023-05-14T22:17:21.775Z,1.98
2023-05-14T22:19:49.256Z,1.70
2023-05-14T22:22:16.783Z,1.60
2023-05-14T22:24:44.136Z,1.73
2023-05-14T22:27:11.686Z,1.60
2023-05-14T22:29:39.011Z,1.48
2023-05-14T22:32:08.097Z,1.80
2023-05-14T22:34:35.516Z,2.03
2023-05-14T22:37:06.134Z,2.00
2023-05-14T22:39:33.498Z,1.80
2023-05-14T22:42:02.010Z,1.90
2023-05-14T22:44:30.028Z,1.70
2023-05-14T22:46:57.861Z,1.75
2023-05-14T22:49:25.413Z,1.30
2023-05-14T22:51:54.717Z,1.30
2023-05-14T22:54:22.678Z,1.60
2023-05-14T22:56:50.261Z,1.20
2023-05-14T22:59:18.262Z,1.15
2023-05-14T23:01:45.881Z,0.80
2023-05-14T23:04:13.453Z,0.90
2023-05-14T23:06:40.930Z,0.90
2023-05-14T23:09:08.342Z,0.90
2023-05-14T23:11:35.749Z,0.88
2023-05-14T23:14:03.093Z,1.02
2023-05-14T23:16:30.546Z,1.02
2023-05-14T23:18:58.207Z,1.20
2023-05-14T23:21:26.002Z,0.93
2023-05-14T23:23:53.396Z,1.00
2023-05-14T23:26:21.530Z,0.80
2023-05-14T23:28:49.582Z,0.80
2023-05-14T23:31:16.900Z,0.70
2023-05-14T23:33:45.098Z,0.68
2023-05-14T23:36:12.473Z,0.80
2023-05-14T23:38:40.157Z,0.90
2023-05-14T23:41:07.498Z,1.00
2023-05-14T23:43:34.820Z,1.00
2023-05-14T23:46:02.889Z,1.00
2023-05-14T23:48:30.635Z,1.00
2023-05-14T23:50:57.975Z,1.00
2023-05-14T23:53:25.561Z,0.93
2023-05-14T23:55:53.001Z,0.90
2023-05-14T23:58:20.404Z,0.90
